Terminal Aerodrome Forecast
Issued by NWS

Current Version | Previous Version | Graphics & Text | Print | Product List | Glossary On
Versions: 1 2 3 4 5 6 7 8 9 10 11 12 13 14 15 16 17 18
508
FTUS41 KPBZ 190709 AAA
TAFHLG
TAF AMD
KHLG 190709Z 1907/2006 31005KT 2SM BR BKN007
     FM191200 31012G20KT 3SM -SHSN OVC012
     FM191700 32013G26KT P6SM VCSH BKN025
     FM192200 31012KT P6SM BKN025
     FM200300 32008KT P6SM SCT020=

USA.gov is the U.S. government's official web portal to all federal, state and local government web resources and services.